sensor_id;sensor_type;location;lat;lon;timestamp;temperature;humidity
51383;DHT22;37475;43.358;1.248;2023-01-15T00:03:51;4.80;91.10
51383;DHT22;37475;43.358;1.248;2023-01-15T00:06:18;4.70;91.30
51383;DHT22;37475;43.358;1.248;2023-01-15T00:08:45;4.60;91.20
51383;DHT22;37475;43.358;1.248;2023-01-15T00:11:12;4.60;91.70
51383;DHT22;37475;43.358;1.248;2023-01-15T00:13:38;4.70;91.80
51383;DHT22;37475;43.358;1.248;2023-01-15T00:16:11;4.70;91.70
51383;DHT22;37475;43.358;1.248;2023-01-15T00:18:38;4.60;91.50
51383;DHT22;37475;43.358;1.248;2023-01-15T00:21:06;4.70;91.40
51383;DHT22;37475;43.358;1.248;2023-01-15T00:23:34;4.70;91.30
51383;DHT22;37475;43.358;1.248;2023-01-15T00:26:20;4.70;90.90
51383;DHT22;37475;43.358;1.248;2023-01-15T00:29:06;4.60;90.90
51383;DHT22;37475;43.358;1.248;2023-01-15T00:31:33;4.50;91.00
51383;DHT22;37475;43.358;1.248;2023-01-15T00:34:00;4.40;91.40
51383;DHT22;37475;43.358;1.248;2023-01-15T00:36:26;4.40;91.80
51383;DHT22;37475;43.358;1.248;2023-01-15T00:38:52;4.40;92.00
51383;DHT22;37475;43.358;1.248;2023-01-15T00:41:18;4.30;92.40
51383;DHT22;37475;43.358;1.248;2023-01-15T00:43:45;4.30;92.50
51383;DHT22;37475;43.358;1.248;2023-01-15T00:46:11;4.40;92.50
51383;DHT22;37475;43.358;1.248;2023-01-15T00:48:37;4.30;92.50
51383;DHT22;37475;43.358;1.248;2023-01-15T00:51:04;4.30;92.80
51383;DHT22;37475;43.358;1.248;2023-01-15T00:53:30;4.30;92.90
51383;DHT22;37475;43.358;1.248;2023-01-15T00:55:56;4.30;92.80
51383;DHT22;37475;43.358;1.248;2023-01-15T00:58:22;4.40;92.60
51383;DHT22;37475;43.358;1.248;2023-01-15T01:00:56;4.20;92.60
51383;DHT22;37475;43.358;1.248;2023-01-15T01:03:22;4.20;92.90
51383;DHT22;37475;43.358;1.248;2023-01-15T01:05:49;4.30;92.90
51383;DHT22;37475;43.358;1.248;2023-01-15T01:08:15;4.20;93.00
51383;DHT22;37475;43.358;1.248;2023-01-15T01:10:41;4.20;93.00
51383;DHT22;37475;43.358;1.248;2023-01-15T01:13:08;4.10;93.30
51383;DHT22;37475;43.358;1.248;2023-01-15T01:15:35;4.10;93.40
51383;DHT22;37475;43.358;1.248;2023-01-15T01:18:02;4.10;93.50
51383;DHT22;37475;43.358;1.248;2023-01-15T01:20:29;4.20;93.50
51383;DHT22;37475;43.358;1.248;2023-01-15T01:22:55;4.20;93.40
51383;DHT22;37475;43.358;1.248;2023-01-15T01:25:22;4.10;93.40
51383;DHT22;37475;43.358;1.248;2023-01-15T01:27:48;4.10;93.50
51383;DHT22;37475;43.358;1.248;2023-01-15T01:30:14;4.10;93.40
51383;DHT22;37475;43.358;1.248;2023-01-15T01:32:44;4.20;93.30
51383;DHT22;37475;43.358;1.248;2023-01-15T01:35:10;4.20;93.20
51383;DHT22;37475;43.358;1.248;2023-01-15T01:37:36;4.00;93.00
51383;DHT22;37475;43.358;1.248;2023-01-15T01:40:03;4.00;93.20
51383;DHT22;37475;43.358;1.248;2023-01-15T01:42:29;4.00;93.20
51383;DHT22;37475;43.358;1.248;2023-01-15T01:45:11;3.90;93.20
51383;DHT22;37475;43.358;1.248;2023-01-15T01:47:52;4.00;93.40
51383;DHT22;37475;43.358;1.248;2023-01-15T01:50:20;3.70;93.00
51383;DHT22;37475;43.358;1.248;2023-01-15T01:52:52;3.60;93.10
51383;DHT22;37475;43.358;1.248;2023-01-15T01:55:23;3.70;93.20
51383;DHT22;37475;43.358;1.248;2023-01-15T01:57:51;3.60;93.10
51383;DHT22;37475;43.358;1.248;2023-01-15T02:00:21;3.70;93.30
51383;DHT22;37475;43.358;1.248;2023-01-15T02:02:48;3.70;93.40
51383;DHT22;37475;43.358;1.248;2023-01-15T02:05:24;3.60;93.40
51383;DHT22;37475;43.358;1.248;2023-01-15T02:07:54;3.70;93.50
51383;DHT22;37475;43.358;1.248;2023-01-15T02:10:20;3.70;93.50
51383;DHT22;37475;43.358;1.248;2023-01-15T02:13:15;3.70;93.50
51383;DHT22;37475;43.358;1.248;2023-01-15T02:15:49;3.70;93.50
51383;DHT22;37475;43.358;1.248;2023-01-15T02:18:57;3.60;93.50
51383;DHT22;37475;43.358;1.248;2023-01-15T02:22:02;3.70;93.60
51383;DHT22;37475;43.358;1.248;2023-01-15T02:27:33;3.60;93.50
51383;DHT22;37475;43.358;1.248;2023-01-15T02:30:05;3.60;93.60
51383;DHT22;37475;43.358;1.248;2023-01-15T02:32:39;3.60;93.70
51383;DHT22;37475;43.358;1.248;2023-01-15T02:35:31;3.70;93.70
51383;DHT22;37475;43.358;1.248;2023-01-15T02:38:07;3.70;93.60
51383;DHT22;37475;43.358;1.248;2023-01-15T02:40:35;3.70;93.50
51383;DHT22;37475;43.358;1.248;2023-01-15T02:43:02;3.60;93.30
51383;DHT22;37475;43.358;1.248;2023-01-15T02:45:31;3.60;93.40
51383;DHT22;37475;43.358;1.248;2023-01-15T02:48:05;3.60;93.40
51383;DHT22;37475;43.358;1.248;2023-01-15T02:50:36;3.60;93.20
51383;DHT22;37475;43.358;1.248;2023-01-15T02:53:08;3.60;93.20
51383;DHT22;37475;43.358;1.248;2023-01-15T02:55:41;3.60;93.10
51383;DHT22;37475;43.358;1.248;2023-01-15T02:58:12;3.50;93.10
51383;DHT22;37475;43.358;1.248;2023-01-15T03:00:46;3.60;93.10
51383;DHT22;37475;43.358;1.248;2023-01-15T03:03:58;3.60;93.00
51383;DHT22;37475;43.358;1.248;2023-01-15T03:09:06;3.60;92.90
51383;DHT22;37475;43.358;1.248;2023-01-15T03:11:36;3.60;92.80
51383;DHT22;37475;43.358;1.248;2023-01-15T03:14:24;3.60;92.70
51383;DHT22;37475;43.358;1.248;2023-01-15T03:17:08;3.60;92.80
51383;DHT22;37475;43.358;1.248;2023-01-15T03:20:24;3.60;92.70
51383;DHT22;37475;43.358;1.248;2023-01-15T03:22:57;3.60;92.60
51383;DHT22;37475;43.358;1.248;2023-01-15T03:25:35;3.40;92.50
51383;DHT22;37475;43.358;1.248;2023-01-15T03:28:04;3.50;92.60
51383;DHT22;37475;43.358;1.248;2023-01-15T03:30:32;3.50;92.40
51383;DHT22;37475;43.358;1.248;2023-01-15T03:32:58;3.50;92.50
51383;DHT22;37475;43.358;1.248;2023-01-15T03:35:45;3.40;93.00
51383;DHT22;37475;43.358;1.248;2023-01-15T03:38:34;3.40;93.10
51383;DHT22;37475;43.358;1.248;2023-01-15T03:55:45;3.50;92.50
51383;DHT22;37475;43.358;1.248;2023-01-15T03:58:29;3.30;92.40
51383;DHT22;37475;43.358;1.248;2023-01-15T04:01:04;3.40;92.70
51383;DHT22;37475;43.358;1.248;2023-01-15T04:03:31;3.30;92.60
51383;DHT22;37475;43.358;1.248;2023-01-15T04:06:00;3.20;92.50
51383;DHT22;37475;43.358;1.248;2023-01-15T04:08:30;3.20;92.50
51383;DHT22;37475;43.358;1.248;2023-01-15T04:11:00;3.20;92.40
51383;DHT22;37475;43.358;1.248;2023-01-15T04:13:27;3.20;92.30
51383;DHT22;37475;43.358;1.248;2023-01-15T04:15:53;3.20;92.30
51383;DHT22;37475;43.358;1.248;2023-01-15T04:18:20;3.20;92.20
51383;DHT22;37475;43.358;1.248;2023-01-15T04:20:47;3.20;92.20
51383;DHT22;37475;43.358;1.248;2023-01-15T04:23:13;3.10;92.30
51383;DHT22;37475;43.358;1.248;2023-01-15T04:25:39;3.00;92.20
51383;DHT22;37475;43.358;1.248;2023-01-15T04:28:07;3.00;92.30
51383;DHT22;37475;43.358;1.248;2023-01-15T04:30:34;2.90;92.50
51383;DHT22;37475;43.358;1.248;2023-01-15T04:33:01;3.00;92.80
51383;DHT22;37475;43.358;1.248;2023-01-15T04:35:27;2.90;93.00
51383;DHT22;37475;43.358;1.248;2023-01-15T04:37:57;2.90;93.20
51383;DHT22;37475;43.358;1.248;2023-01-15T04:40:24;2.90;93.30
51383;DHT22;37475;43.358;1.248;2023-01-15T04:43:10;2.90;93.40
51383;DHT22;37475;43.358;1.248;2023-01-15T04:45:56;2.90;93.40
51383;DHT22;37475;43.358;1.248;2023-01-15T04:48:22;2.80;93.60
51383;DHT22;37475;43.358;1.248;2023-01-15T04:50:48;2.90;93.60
51383;DHT22;37475;43.358;1.248;2023-01-15T04:53:13;2.90;93.60
51383;DHT22;37475;43.358;1.248;2023-01-15T04:55:39;2.90;93.70
51383;DHT22;37475;43.358;1.248;2023-01-15T04:58:06;2.90;93.70
51383;DHT22;37475;43.358;1.248;2023-01-15T05:00:32;2.80;93.60
51383;DHT22;37475;43.358;1.248;2023-01-15T05:02:57;2.80;93.70
51383;DHT22;37475;43.358;1.248;2023-01-15T05:05:23;2.80;93.60
51383;DHT22;37475;43.358;1.248;2023-01-15T05:07:49;2.70;93.70
51383;DHT22;37475;43.358;1.248;2023-01-15T05:10:15;2.80;93.90
51383;DHT22;37475;43.358;1.248;2023-01-15T05:12:41;2.90;94.00
51383;DHT22;37475;43.358;1.248;2023-01-15T05:15:07;2.90;94.00
51383;DHT22;37475;43.358;1.248;2023-01-15T05:17:34;2.90;94.00
51383;DHT22;37475;43.358;1.248;2023-01-15T05:20:00;2.80;93.80
51383;DHT22;37475;43.358;1.248;2023-01-15T05:22:25;2.80;93.80
51383;DHT22;37475;43.358;1.248;2023-01-15T05:24:51;2.70;93.80
51383;DHT22;37475;43.358;1.248;2023-01-15T05:27:17;2.80;93.90
51383;DHT22;37475;43.358;1.248;2023-01-15T05:29:43;2.80;94.00
51383;DHT22;37475;43.358;1.248;2023-01-15T05:32:09;2.80;93.90
51383;DHT22;37475;43.358;1.248;2023-01-15T05:34:35;2.80;93.90
51383;DHT22;37475;43.358;1.248;2023-01-15T05:37:01;2.80;93.70
51383;DHT22;37475;43.358;1.248;2023-01-15T05:39:27;2.70;93.90
51383;DHT22;37475;43.358;1.248;2023-01-15T05:41:52;2.60;94.50
51383;DHT22;37475;43.358;1.248;2023-01-15T05:44:28;2.70;94.60
51383;DHT22;37475;43.358;1.248;2023-01-15T05:46:57;2.70;94.60
51383;DHT22;37475;43.358;1.248;2023-01-15T05:49:27;2.70;94.60
51383;DHT22;37475;43.358;1.248;2023-01-15T05:51:55;2.80;94.50
51383;DHT22;37475;43.358;1.248;2023-01-15T05:54:24;2.80;94.30
51383;DHT22;37475;43.358;1.248;2023-01-15T05:56:52;2.90;94.20
51383;DHT22;37475;43.358;1.248;2023-01-15T05:59:21;2.90;94.00
51383;DHT22;37475;43.358;1.248;2023-01-15T06:01:48;2.90;93.70
51383;DHT22;37475;43.358;1.248;2023-01-15T06:04:14;3.00;93.40
51383;DHT22;37475;43.358;1.248;2023-01-15T06:06:45;3.10;93.20
51383;DHT22;37475;43.358;1.248;2023-01-15T06:09:12;3.10;92.90
51383;DHT22;37475;43.358;1.248;2023-01-15T06:11:39;3.10;93.00
51383;DHT22;37475;43.358;1.248;2023-01-15T06:14:05;3.20;92.80
51383;DHT22;37475;43.358;1.248;2023-01-15T06:16:32;3.30;92.70
51383;DHT22;37475;43.358;1.248;2023-01-15T06:19:03;3.30;92.70
51383;DHT22;37475;43.358;1.248;2023-01-15T06:21:32;3.30;92.60
51383;DHT22;37475;43.358;1.248;2023-01-15T06:23:59;3.40;92.60
51383;DHT22;37475;43.358;1.248;2023-01-15T06:26:25;3.40;92.50
51383;DHT22;37475;43.358;1.248;2023-01-15T06:28:52;3.50;92.50
51383;DHT22;37475;43.358;1.248;2023-01-15T06:31:21;3.60;92.40
51383;DHT22;37475;43.358;1.248;2023-01-15T06:33:47;3.70;92.30
51383;DHT22;37475;43.358;1.248;2023-01-15T06:36:16;3.80;92.30
51383;DHT22;37475;43.358;1.248;2023-01-15T06:38:49;3.90;92.20
51383;DHT22;37475;43.358;1.248;2023-01-15T06:41:17;4.10;92.20
51383;DHT22;37475;43.358;1.248;2023-01-15T06:44:04;4.20;92.10
51383;DHT22;37475;43.358;1.248;2023-01-15T06:46:50;4.30;91.80
51383;DHT22;37475;43.358;1.248;2023-01-15T06:49:36;4.30;91.90
51383;DHT22;37475;43.358;1.248;2023-01-15T06:52:02;4.40;92.00
51383;DHT22;37475;43.358;1.248;2023-01-15T06:54:29;4.60;92.20
51383;DHT22;37475;43.358;1.248;2023-01-15T06:56:55;5.00;92.30
51383;DHT22;37475;43.358;1.248;2023-01-15T06:59:20;5.60;92.80
51383;DHT22;37475;43.358;1.248;2023-01-15T07:01:47;6.00;92.70
51383;DHT22;37475;43.358;1.248;2023-01-15T07:04:13;6.20;92.60
51383;DHT22;37475;43.358;1.248;2023-01-15T07:06:39;6.40;92.60
51383;DHT22;37475;43.358;1.248;2023-01-15T07:09:05;6.60;92.60
51383;DHT22;37475;43.358;1.248;2023-01-15T07:11:31;6.80;93.00
51383;DHT22;37475;43.358;1.248;2023-01-15T07:13:57;6.70;93.20
51383;DHT22;37475;43.358;1.248;2023-01-15T07:16:33;6.80;93.40
51383;DHT22;37475;43.358;1.248;2023-01-15T07:19:00;6.90;93.40
51383;DHT22;37475;43.358;1.248;2023-01-15T07:21:26;7.40;95.10
51383;DHT22;37475;43.358;1.248;2023-01-15T07:23:53;7.60;95.00
51383;DHT22;37475;43.358;1.248;2023-01-15T07:26:19;7.80;94.60
51383;DHT22;37475;43.358;1.248;2023-01-15T07:28:45;7.90;94.60
51383;DHT22;37475;43.358;1.248;2023-01-15T07:31:11;7.80;93.70
51383;DHT22;37475;43.358;1.248;2023-01-15T07:33:37;7.90;92.80
51383;DHT22;37475;43.358;1.248;2023-01-15T07:36:04;7.90;92.70
51383;DHT22;37475;43.358;1.248;2023-01-15T07:38:30;7.90;92.80
51383;DHT22;37475;43.358;1.248;2023-01-15T07:40:57;7.90;92.90
51383;DHT22;37475;43.358;1.248;2023-01-15T07:43:42;7.90;93.00
51383;DHT22;37475;43.358;1.248;2023-01-15T07:46:27;7.80;93.00
51383;DHT22;37475;43.358;1.248;2023-01-15T07:49:12;7.80;93.20
51383;DHT22;37475;43.358;1.248;2023-01-15T07:51:57;7.80;93.30
51383;DHT22;37475;43.358;1.248;2023-01-15T07:54:23;7.80;93.60
51383;DHT22;37475;43.358;1.248;2023-01-15T07:56:50;7.80;93.70
51383;DHT22;37475;43.358;1.248;2023-01-15T07:59:18;7.80;93.80
51383;DHT22;37475;43.358;1.248;2023-01-15T08:01:44;7.80;94.00
51383;DHT22;37475;43.358;1.248;2023-01-15T08:04:10;7.70;94.20
51383;DHT22;37475;43.358;1.248;2023-01-15T08:06:36;7.70;94.30
51383;DHT22;37475;43.358;1.248;2023-01-15T08:09:02;7.80;94.30
51383;DHT22;37475;43.358;1.248;2023-01-15T08:11:29;7.90;94.20
51383;DHT22;37475;43.358;1.248;2023-01-15T08:14:13;7.80;94.30
51383;DHT22;37475;43.358;1.248;2023-01-15T08:16:58;7.80;94.60
51383;DHT22;37475;43.358;1.248;2023-01-15T08:19:24;7.80;94.50
51383;DHT22;37475;43.358;1.248;2023-01-15T08:21:50;7.90;94.50
51383;DHT22;37475;43.358;1.248;2023-01-15T08:24:16;7.80;94.20
51383;DHT22;37475;43.358;1.248;2023-01-15T08:26:42;7.90;93.90
51383;DHT22;37475;43.358;1.248;2023-01-15T08:29:08;7.90;93.80
51383;DHT22;37475;43.358;1.248;2023-01-15T08:31:34;7.90;93.60
51383;DHT22;37475;43.358;1.248;2023-01-15T08:34:01;8.00;93.10
51383;DHT22;37475;43.358;1.248;2023-01-15T08:36:28;7.90;93.30
51383;DHT22;37475;43.358;1.248;2023-01-15T08:38:53;7.90;93.20
51383;DHT22;37475;43.358;1.248;2023-01-15T08:41:19;7.90;93.20
51383;DHT22;37475;43.358;1.248;2023-01-15T08:43:45;7.90;93.30
51383;DHT22;37475;43.358;1.248;2023-01-15T08:46:11;7.90;93.30
51383;DHT22;37475;43.358;1.248;2023-01-15T08:48:37;8.00;93.20
51383;DHT22;37475;43.358;1.248;2023-01-15T08:51:07;8.00;93.10
51383;DHT22;37475;43.358;1.248;2023-01-15T08:53:35;8.00;93.20
51383;DHT22;37475;43.358;1.248;2023-01-15T08:56:02;8.00;93.00
51383;DHT22;37475;43.358;1.248;2023-01-15T08:58:32;8.00;93.00
51383;DHT22;37475;43.358;1.248;2023-01-15T09:01:05;8.00;93.00
51383;DHT22;37475;43.358;1.248;2023-01-15T09:03:32;8.00;93.10
51383;DHT22;37475;43.358;1.248;2023-01-15T09:05:59;8.00;93.00
51383;DHT22;37475;43.358;1.248;2023-01-15T09:08:26;8.00;93.00
51383;DHT22;37475;43.358;1.248;2023-01-15T09:11:01;8.00;93.30
51383;DHT22;37475;43.358;1.248;2023-01-15T09:13:28;8.00;93.40
51383;DHT22;37475;43.358;1.248;2023-01-15T09:16:02;8.00;93.50
51383;DHT22;37475;43.358;1.248;2023-01-15T09:18:29;8.00;93.40
51383;DHT22;37475;43.358;1.248;2023-01-15T09:20:55;8.00;93.20
51383;DHT22;37475;43.358;1.248;2023-01-15T09:23:22;8.00;92.90
51383;DHT22;37475;43.358;1.248;2023-01-15T09:26:03;8.10;93.00
51383;DHT22;37475;43.358;1.248;2023-01-15T09:28:31;8.10;92.90
51383;DHT22;37475;43.358;1.248;2023-01-15T09:30:59;8.10;92.90
51383;DHT22;37475;43.358;1.248;2023-01-15T09:33:25;8.10;92.90
51383;DHT22;37475;43.358;1.248;2023-01-15T09:35:51;8.10;92.80
51383;DHT22;37475;43.358;1.248;2023-01-15T09:38:20;8.20;92.40
51383;DHT22;37475;43.358;1.248;2023-01-15T09:40:51;8.20;92.30
51383;DHT22;37475;43.358;1.248;2023-01-15T09:46:24;8.20;92.30
51383;DHT22;37475;43.358;1.248;2023-01-15T09:49:13;8.20;92.20
51383;DHT22;37475;43.358;1.248;2023-01-15T09:57:29;8.00;93.30
51383;DHT22;37475;43.358;1.248;2023-01-15T09:59:56;8.00;93.60
51383;DHT22;37475;43.358;1.248;2023-01-15T10:02:29;7.90;93.40
51383;DHT22;37475;43.358;1.248;2023-01-15T10:05:06;8.00;93.50
51383;DHT22;37475;43.358;1.248;2023-01-15T10:08:13;8.00;93.30
51383;DHT22;37475;43.358;1.248;2023-01-15T10:10:57;8.00;93.20
51383;DHT22;37475;43.358;1.248;2023-01-15T10:13:38;8.10;92.80
51383;DHT22;37475;43.358;1.248;2023-01-15T10:16:10;8.10;92.40
51383;DHT22;37475;43.358;1.248;2023-01-15T10:18:36;8.10;92.80
51383;DHT22;37475;43.358;1.248;2023-01-15T10:21:45;8.20;92.60
51383;DHT22;37475;43.358;1.248;2023-01-15T10:24:46;8.20;92.20
51383;DHT22;37475;43.358;1.248;2023-01-15T10:27:22;8.30;92.10
51383;DHT22;37475;43.358;1.248;2023-01-15T10:33:51;8.30;91.70
51383;DHT22;37475;43.358;1.248;2023-01-15T10:36:11;8.30;91.80
51383;DHT22;37475;43.358;1.248;2023-01-15T10:47:21;8.40;91.30
51383;DHT22;37475;43.358;1.248;2023-01-15T10:49:53;8.40;90.50
51383;DHT22;37475;43.358;1.248;2023-01-15T10:52:30;8.50;90.50
51383;DHT22;37475;43.358;1.248;2023-01-15T11:00:34;8.50;89.50
51383;DHT22;37475;43.358;1.248;2023-01-15T11:03:03;8.50;88.50
51383;DHT22;37475;43.358;1.248;2023-01-15T11:05:33;8.60;88.90
51383;DHT22;37475;43.358;1.248;2023-01-15T11:08:03;8.60;88.60
51383;DHT22;37475;43.358;1.248;2023-01-15T11:10:31;8.40;89.10
51383;DHT22;37475;43.358;1.248;2023-01-15T11:13:01;8.30;89.60
51383;DHT22;37475;43.358;1.248;2023-01-15T11:15:54;8.30;89.40
51383;DHT22;37475;43.358;1.248;2023-01-15T11:18:44;8.20;88.10
51383;DHT22;37475;43.358;1.248;2023-01-15T11:21:29;8.10;88.00
51383;DHT22;37475;43.358;1.248;2023-01-15T11:23:58;8.00;88.30
51383;DHT22;37475;43.358;1.248;2023-01-15T11:26:31;8.00;88.10
51383;DHT22;37475;43.358;1.248;2023-01-15T11:29:00;7.90;88.90
51383;DHT22;37475;43.358;1.248;2023-01-15T11:31:39;7.90;89.60
51383;DHT22;37475;43.358;1.248;2023-01-15T11:34:15;7.80;90.40
51383;DHT22;37475;43.358;1.248;2023-01-15T11:36:45;7.80;91.00
51383;DHT22;37475;43.358;1.248;2023-01-15T11:39:25;7.60;91.10
51383;DHT22;37475;43.358;1.248;2023-01-15T11:42:18;7.60;91.10
51383;DHT22;37475;43.358;1.248;2023-01-15T11:45:12;7.60;90.00
51383;DHT22;37475;43.358;1.248;2023-01-15T11:48:01;7.50;88.90
51383;DHT22;37475;43.358;1.248;2023-01-15T11:50:52;7.40;87.10
51383;DHT22;37475;43.358;1.248;2023-01-15T11:53:24;7.60;86.60
51383;DHT22;37475;43.358;1.248;2023-01-15T11:56:02;7.60;85.10
51383;DHT22;37475;43.358;1.248;2023-01-15T11:58:43;7.70;85.40
51383;DHT22;37475;43.358;1.248;2023-01-15T12:07:03;7.70;87.60
51383;DHT22;37475;43.358;1.248;2023-01-15T12:09:35;7.80;88.10
51383;DHT22;37475;43.358;1.248;2023-01-15T12:15:32;7.80;88.40
51383;DHT22;37475;43.358;1.248;2023-01-15T12:19:38;7.80;88.30
51383;DHT22;37475;43.358;1.248;2023-01-15T12:22:05;7.90;89.20
51383;DHT22;37475;43.358;1.248;2023-01-15T12:27:51;8.00;88.50
51383;DHT22;37475;43.358;1.248;2023-01-15T12:30:25;8.00;88.30
51383;DHT22;37475;43.358;1.248;2023-01-15T12:35:34;8.10;88.50
51383;DHT22;37475;43.358;1.248;2023-01-15T12:38:11;8.10;88.60
51383;DHT22;37475;43.358;1.248;2023-01-15T12:40:53;8.20;88.60
51383;DHT22;37475;43.358;1.248;2023-01-15T12:43:25;8.20;88.00
51383;DHT22;37475;43.358;1.248;2023-01-15T12:46:18;8.20;88.00
51383;DHT22;37475;43.358;1.248;2023-01-15T12:51:38;8.20;88.30
51383;DHT22;37475;43.358;1.248;2023-01-15T12:54:12;8.30;88.40
51383;DHT22;37475;43.358;1.248;2023-01-15T12:56:59;8.30;89.00
51383;DHT22;37475;43.358;1.248;2023-01-15T12:59:43;8.30;88.60
51383;DHT22;37475;43.358;1.248;2023-01-15T13:02:27;8.30;88.50
51383;DHT22;37475;43.358;1.248;2023-01-15T13:05:17;8.40;88.50
51383;DHT22;37475;43.358;1.248;2023-01-15T13:08:11;8.40;87.60
51383;DHT22;37475;43.358;1.248;2023-01-15T13:10:44;8.40;88.00
51383;DHT22;37475;43.358;1.248;2023-01-15T13:21:28;8.60;86.60
51383;DHT22;37475;43.358;1.248;2023-01-15T13:37:35;8.40;84.80
51383;DHT22;37475;43.358;1.248;2023-01-15T13:40:10;8.40;85.30
51383;DHT22;37475;43.358;1.248;2023-01-15T13:42:38;8.40;85.90
51383;DHT22;37475;43.358;1.248;2023-01-15T13:45:28;8.40;85.70
51383;DHT22;37475;43.358;1.248;2023-01-15T13:48:13;8.40;85.50
51383;DHT22;37475;43.358;1.248;2023-01-15T13:50:53;8.40;85.40
51383;DHT22;37475;43.358;1.248;2023-01-15T13:53:56;8.50;85.50
51383;DHT22;37475;43.358;1.248;2023-01-15T13:56:29;8.40;85.70
51383;DHT22;37475;43.358;1.248;2023-01-15T14:03:59;8.40;84.20
51383;DHT22;37475;43.358;1.248;2023-01-15T14:06:48;8.40;84.70
51383;DHT22;37475;43.358;1.248;2023-01-15T14:23:31;8.60;83.40
51383;DHT22;37475;43.358;1.248;2023-01-15T14:34:58;8.70;81.80
51383;DHT22;37475;43.358;1.248;2023-01-15T14:37:48;8.60;81.50
51383;DHT22;37475;43.358;1.248;2023-01-15T14:40:20;8.60;81.90
51383;DHT22;37475;43.358;1.248;2023-01-15T14:42:50;8.40;83.40
51383;DHT22;37475;43.358;1.248;2023-01-15T14:45:33;8.10;84.50
51383;DHT22;37475;43.358;1.248;2023-01-15T14:48:09;7.70;85.60
51383;DHT22;37475;43.358;1.248;2023-01-15T14:50:41;7.40;86.80
51383;DHT22;37475;43.358;1.248;2023-01-15T14:58:56;7.30;87.50
51383;DHT22;37475;43.358;1.248;2023-01-15T15:02:01;7.40;87.60
51383;DHT22;37475;43.358;1.248;2023-01-15T15:04:41;7.40;87.30
51383;DHT22;37475;43.358;1.248;2023-01-15T15:07:12;7.50;87.10
51383;DHT22;37475;43.358;1.248;2023-01-15T15:09:51;7.60;86.60
51383;DHT22;37475;43.358;1.248;2023-01-15T15:21:06;8.00;86.40
51383;DHT22;37475;43.358;1.248;2023-01-15T15:26:36;8.10;84.90
51383;DHT22;37475;43.358;1.248;2023-01-15T15:29:04;8.40;84.80
51383;DHT22;37475;43.358;1.248;2023-01-15T15:34:32;8.30;84.80
51383;DHT22;37475;43.358;1.248;2023-01-15T15:37:05;8.50;83.60
51383;DHT22;37475;43.358;1.248;2023-01-15T15:40:04;8.60;84.10
51383;DHT22;37475;43.358;1.248;2023-01-15T15:45:51;9.10;82.50
51383;DHT22;37475;43.358;1.248;2023-01-15T15:48:37;9.30;81.80
51383;DHT22;37475;43.358;1.248;2023-01-15T15:51:38;9.10;81.80
51383;DHT22;37475;43.358;1.248;2023-01-15T16:02:13;8.60;82.30
51383;DHT22;37475;43.358;1.248;2023-01-15T16:04:51;8.60;82.10
51383;DHT22;37475;43.358;1.248;2023-01-15T16:07:27;8.60;81.20
51383;DHT22;37475;43.358;1.248;2023-01-15T16:10:16;8.40;81.40
51383;DHT22;37475;43.358;1.248;2023-01-15T16:12:50;8.20;81.30
51383;DHT22;37475;43.358;1.248;2023-01-15T16:15:52;8.10;81.90
51383;DHT22;37475;43.358;1.248;2023-01-15T16:18:24;8.10;81.40
51383;DHT22;37475;43.358;1.248;2023-01-15T16:20:54;8.00;80.20
51383;DHT22;37475;43.358;1.248;2023-01-15T16:23:23;7.80;80.10
51383;DHT22;37475;43.358;1.248;2023-01-15T16:26:04;7.80;79.50
51383;DHT22;37475;43.358;1.248;2023-01-15T16:28:43;7.80;78.70
51383;DHT22;37475;43.358;1.248;2023-01-15T16:31:14;7.70;78.20
51383;DHT22;37475;43.358;1.248;2023-01-15T16:33:41;7.60;77.10
51383;DHT22;37475;43.358;1.248;2023-01-15T16:36:08;7.60;77.30
51383;DHT22;37475;43.358;1.248;2023-01-15T16:38:40;7.60;77.80
51383;DHT22;37475;43.358;1.248;2023-01-15T16:41:58;7.60;77.40
51383;DHT22;37475;43.358;1.248;2023-01-15T16:44:06;7.50;77.70
51383;DHT22;37475;43.358;1.248;2023-01-15T16:46:40;7.60;77.80
51383;DHT22;37475;43.358;1.248;2023-01-15T16:51:46;7.40;78.60
51383;DHT22;37475;43.358;1.248;2023-01-15T16:54:43;7.30;78.50
51383;DHT22;37475;43.358;1.248;2023-01-15T16:57:26;7.20;79.10
51383;DHT22;37475;43.358;1.248;2023-01-15T16:59:56;7.10;79.40
51383;DHT22;37475;43.358;1.248;2023-01-15T17:02:24;7.10;79.60
51383;DHT22;37475;43.358;1.248;2023-01-15T17:04:59;7.10;80.00
51383;DHT22;37475;43.358;1.248;2023-01-15T17:07:34;7.00;80.20
51383;DHT22;37475;43.358;1.248;2023-01-15T17:10:03;6.90;81.00
51383;DHT22;37475;43.358;1.248;2023-01-15T17:12:37;6.80;81.30
51383;DHT22;37475;43.358;1.248;2023-01-15T17:17:46;6.60;81.90
51383;DHT22;37475;43.358;1.248;2023-01-15T17:20:17;6.50;82.50
51383;DHT22;37475;43.358;1.248;2023-01-15T17:22:45;6.30;83.10
51383;DHT22;37475;43.358;1.248;2023-01-15T17:25:38;6.20;83.60
51383;DHT22;37475;43.358;1.248;2023-01-15T17:28:04;6.10;84.10
51383;DHT22;37475;43.358;1.248;2023-01-15T17:30:31;6.10;84.60
51383;DHT22;37475;43.358;1.248;2023-01-15T17:33:03;5.90;85.10
51383;DHT22;37475;43.358;1.248;2023-01-15T17:35:37;5.80;85.60
51383;DHT22;37475;43.358;1.248;2023-01-15T17:38:05;5.70;85.70
51383;DHT22;37475;43.358;1.248;2023-01-15T17:40:36;5.80;85.90
51383;DHT22;37475;43.358;1.248;2023-01-15T17:43:04;5.70;86.00
51383;DHT22;37475;43.358;1.248;2023-01-15T17:45:31;5.60;86.00
51383;DHT22;37475;43.358;1.248;2023-01-15T17:47:58;5.60;86.30
51383;DHT22;37475;43.358;1.248;2023-01-15T17:50:24;5.60;86.20
51383;DHT22;37475;43.358;1.248;2023-01-15T17:52:50;5.60;85.90
51383;DHT22;37475;43.358;1.248;2023-01-15T17:55:19;5.40;86.40
51383;DHT22;37475;43.358;1.248;2023-01-15T17:58:05;5.30;86.70
51383;DHT22;37475;43.358;1.248;2023-01-15T18:00:51;5.30;86.60
51383;DHT22;37475;43.358;1.248;2023-01-15T18:03:39;5.30;86.70
51383;DHT22;37475;43.358;1.248;2023-01-15T18:06:28;5.20;86.90
51383;DHT22;37475;43.358;1.248;2023-01-15T18:08:56;5.20;87.20
51383;DHT22;37475;43.358;1.248;2023-01-15T18:11:23;5.20;87.30
51383;DHT22;37475;43.358;1.248;2023-01-15T18:13:49;5.20;87.40
51383;DHT22;37475;43.358;1.248;2023-01-15T18:16:15;5.10;87.60
51383;DHT22;37475;43.358;1.248;2023-01-15T18:18:42;5.10;87.70
51383;DHT22;37475;43.358;1.248;2023-01-15T18:21:08;5.10;87.60
51383;DHT22;37475;43.358;1.248;2023-01-15T18:23:33;5.10;87.60
51383;DHT22;37475;43.358;1.248;2023-01-15T18:26:05;5.10;87.70
51383;DHT22;37475;43.358;1.248;2023-01-15T18:28:32;5.10;87.70
51383;DHT22;37475;43.358;1.248;2023-01-15T18:31:02;5.10;87.70
51383;DHT22;37475;43.358;1.248;2023-01-15T18:33:28;5.10;87.70
51383;DHT22;37475;43.358;1.248;2023-01-15T18:36:05;5.00;87.80
51383;DHT22;37475;43.358;1.248;2023-01-15T18:38:37;4.90;88.00
51383;DHT22;37475;43.358;1.248;2023-01-15T18:41:09;4.90;88.00
51383;DHT22;37475;43.358;1.248;2023-01-15T18:43:36;4.70;88.20
51383;DHT22;37475;43.358;1.248;2023-01-15T18:46:21;4.70;88.50
51383;DHT22;37475;43.358;1.248;2023-01-15T18:49:05;4.60;88.70
51383;DHT22;37475;43.358;1.248;2023-01-15T18:51:31;4.60;89.00
51383;DHT22;37475;43.358;1.248;2023-01-15T18:53:57;4.50;89.10
51383;DHT22;37475;43.358;1.248;2023-01-15T18:56:23;4.40;89.60